sensor_id;sensor_type;location;lat;lon;timestamp;pressure;altitude;pressure_sealevel;temperature;humidity
73267;BME280;61495;53.400;7.608;2023-02-28T00:00:12;103186.19;;;3.83;89.66
73267;BME280;61495;53.400;7.608;2023-02-28T00:02:40;103193.22;;;3.84;89.17
73267;BME280;61495;53.400;7.608;2023-02-28T00:05:07;103193.22;;;3.84;88.16
73267;BME280;61495;53.400;7.608;2023-02-28T00:07:33;103195.13;;;3.82;88.41
73267;BME280;61495;53.400;7.608;2023-02-28T00:09:58;103195.13;;;3.82;89.62
73267;BME280;61495;53.400;7.608;2023-02-28T00:12:24;103186.41;;;3.80;90.01
73267;BME280;61495;53.400;7.608;2023-02-28T00:14:49;103181.09;;;3.80;89.41
73267;BME280;61495;53.400;7.608;2023-02-28T00:17:15;103175.41;;;3.74;89.13
73267;BME280;61495;53.400;7.608;2023-02-28T00:19:41;103184.72;;;3.79;90.99
73267;BME280;61495;53.400;7.608;2023-02-28T00:22:06;103179.44;;;3.79;90.83
73267;BME280;61495;53.400;7.608;2023-02-28T00:24:32;103181.31;;;3.77;91.16
73267;BME280;61495;53.400;7.608;2023-02-28T00:26:57;103186.63;;;3.77;90.87
73267;BME280;61495;53.400;7.608;2023-02-28T00:29:22;103177.00;;;3.76;91.35
73267;BME280;61495;53.400;7.608;2023-02-28T00:31:48;103171.78;;;3.75;90.23
73267;BME280;61495;53.400;7.608;2023-02-28T00:34:13;103169.25;;;3.73;91.01
73267;BME280;61495;53.400;7.608;2023-02-28T00:36:38;103176.22;;;3.74;91.51
73267;BME280;61495;53.400;7.608;2023-02-28T00:39:04;103169.13;;;3.75;89.44
73267;BME280;61495;53.400;7.608;2023-02-28T00:41:29;103164.88;;;3.72;91.43
73267;BME280;61495;53.400;7.608;2023-02-28T00:43:54;103167.31;;;3.75;92.02
73267;BME280;61495;53.400;7.608;2023-02-28T00:46:20;103169.13;;;3.75;89.51
73267;BME280;61495;53.400;7.608;2023-02-28T00:48:45;103165.63;;;3.74;90.09
73267;BME280;61495;53.400;7.608;2023-02-28T00:51:10;103166.47;;;3.75;90.73
73267;BME280;61495;53.400;7.608;2023-02-28T00:53:36;103171.78;;;3.75;91.68
73267;BME280;61495;53.400;7.608;2023-02-28T00:56:01;103165.63;;;3.74;90.41
73267;BME280;61495;53.400;7.608;2023-02-28T00:58:27;103167.53;;;3.72;91.46
73267;BME280;61495;53.400;7.608;2023-02-28T01:00:53;103170.91;;;3.74;91.98
73267;BME280;61495;53.400;7.608;2023-02-28T01:03:20;103177.94;;;3.75;91.52
73267;BME280;61495;53.400;7.608;2023-02-28T01:05:46;103179.84;;;3.73;91.06
73267;BME280;61495;53.400;7.608;2023-02-28T01:08:12;103175.41;;;3.74;91.39
73267;BME280;61495;53.400;7.608;2023-02-28T01:10:37;103181.53;;;3.74;91.51
73267;BME280;61495;53.400;7.608;2023-02-28T01:13:03;103180.78;;;3.72;91.99
73267;BME280;61495;53.400;7.608;2023-02-28T01:15:29;103175.50;;;3.72;91.01
73267;BME280;61495;53.400;7.608;2023-02-28T01:17:54;103176.44;;;3.71;90.37
73267;BME280;61495;53.400;7.608;2023-02-28T01:20:20;103171.34;;;3.68;91.62
73267;BME280;61495;53.400;7.608;2023-02-28T01:22:46;103174.09;;;3.67;90.81
73267;BME280;61495;53.400;7.608;2023-02-28T01:25:12;103180.06;;;3.70;90.74
73267;BME280;61495;53.400;7.608;2023-02-28T01:27:37;103176.63;;;3.68;91.20
73267;BME280;61495;53.400;7.608;2023-02-28T01:30:05;103177.50;;;3.69;91.80
73267;BME280;61495;53.400;7.608;2023-02-28T01:32:30;103169.66;;;3.67;92.05
73267;BME280;61495;53.400;7.608;2023-02-28T01:34:56;103171.34;;;3.68;91.75
73267;BME280;61495;53.400;7.608;2023-02-28T01:37:21;103175.69;;;3.69;90.28
73267;BME280;61495;53.400;7.608;2023-02-28T01:39:46;103169.44;;;3.70;91.82
73267;BME280;61495;53.400;7.608;2023-02-28T01:42:12;103155.84;;;3.62;91.30
73267;BME280;61495;53.400;7.608;2023-02-28T01:44:58;103173.03;;;3.69;91.72
73267;BME280;61495;53.400;7.608;2023-02-28T01:47:33;103168.69;;;3.68;92.17
73267;BME280;61495;53.400;7.608;2023-02-28T01:50:00;103158.22;;;3.67;91.32
73267;BME280;61495;53.400;7.608;2023-02-28T01:52:27;103160.75;;;3.68;91.69
73267;BME280;61495;53.400;7.608;2023-02-28T01:54:55;103157.34;;;3.66;91.37
73267;BME280;61495;53.400;7.608;2023-02-28T01:57:25;103164.38;;;3.67;91.84
73267;BME280;61495;53.400;7.608;2023-02-28T02:02:21;103162.66;;;3.66;91.52
73267;BME280;61495;53.400;7.608;2023-02-28T02:07:30;103153.97;;;3.64;92.21
73267;BME280;61495;53.400;7.608;2023-02-28T02:10:29;103149.53;;;3.65;91.83
73267;BME280;61495;53.400;7.608;2023-02-28T02:15:42;103134.03;;;3.59;91.95
73267;BME280;61495;53.400;7.608;2023-02-28T02:18:27;103146.09;;;3.63;92.25
73267;BME280;61495;53.400;7.608;2023-02-28T02:37:37;103143.78;;;3.58;91.67
73267;BME280;61495;53.400;7.608;2023-02-28T02:43:46;103136.78;;;3.57;93.12
73267;BME280;61495;53.400;7.608;2023-02-28T02:46:37;103146.53;;;3.57;92.15
73267;BME280;61495;53.400;7.608;2023-02-28T02:49:17;103141.44;;;3.54;93.41
73267;BME280;61495;53.400;7.608;2023-02-28T02:51:46;103145.69;;;3.56;91.64
73267;BME280;61495;53.400;7.608;2023-02-28T02:54:28;103136.13;;;3.54;93.22
73267;BME280;61495;53.400;7.608;2023-02-28T02:56:59;103136.97;;;3.54;93.32
73267;BME280;61495;53.400;7.608;2023-02-28T02:59:28;103147.59;;;3.54;92.52
73267;BME280;61495;53.400;7.608;2023-02-28T03:01:59;103144.06;;;3.54;92.67
73267;BME280;61495;53.400;7.608;2023-02-28T03:04:31;103149.38;;;3.54;93.56
73267;BME280;61495;53.400;7.608;2023-02-28T03:06:58;103145.91;;;3.53;93.19
73267;BME280;61495;53.400;7.608;2023-02-28T03:09:25;103138.03;;;3.52;91.73
73267;BME280;61495;53.400;7.608;2023-02-28T03:11:52;103141.63;;;3.51;92.89
73267;BME280;61495;53.400;7.608;2023-02-28T03:22:47;103149.59;;;3.51;92.91
73267;BME280;61495;53.400;7.608;2023-02-28T03:31:00;103141.03;;;3.47;93.87
73267;BME280;61495;53.400;7.608;2023-02-28T03:33:39;103140.16;;;3.47;93.83
73267;BME280;61495;53.400;7.608;2023-02-28T03:36:12;103145.47;;;3.47;93.22
73267;BME280;61495;53.400;7.608;2023-02-28T03:38:44;103139.31;;;3.46;94.43
73267;BME280;61495;53.400;7.608;2023-02-28T03:41:17;103145.56;;;3.45;94.21
73267;BME280;61495;53.400;7.608;2023-02-28T03:44:01;103148.22;;;3.45;93.75
73267;BME280;61495;53.400;7.608;2023-02-28T03:46:31;103149.06;;;3.46;93.97
73267;BME280;61495;53.400;7.608;2023-02-28T03:49:11;103148.22;;;3.45;93.48
73267;BME280;61495;53.400;7.608;2023-02-28T03:51:40;103150.13;;;3.43;93.89
73267;BME280;61495;53.400;7.608;2023-02-28T03:54:13;103143.97;;;3.43;94.29
73267;BME280;61495;53.400;7.608;2023-02-28T03:56:48;103142.25;;;3.42;93.08
73267;BME280;61495;53.400;7.608;2023-02-28T03:59:31;103153.72;;;3.42;93.20
73267;BME280;61495;53.400;7.608;2023-02-28T04:01:59;103141.44;;;3.41;93.95
73267;BME280;61495;53.400;7.608;2023-02-28T04:04:25;103140.47;;;3.42;94.55
73267;BME280;61495;53.400;7.608;2023-02-28T04:06:51;103153.72;;;3.42;93.16
73267;BME280;61495;53.400;7.608;2023-02-28T04:09:18;103159.00;;;3.42;94.21
73267;BME280;61495;53.400;7.608;2023-02-28T04:11:51;103151.06;;;3.42;91.53
73267;BME280;61495;53.400;7.608;2023-02-28T04:14:18;103145.88;;;3.41;92.90
73267;BME280;61495;53.400;7.608;2023-02-28T04:16:44;103152.03;;;3.41;93.46
73267;BME280;61495;53.400;7.608;2023-02-28T04:19:11;103147.56;;;3.42;94.34
73267;BME280;61495;53.400;7.608;2023-02-28T04:21:39;103148.53;;;3.41;93.98
73267;BME280;61495;53.400;7.608;2023-02-28T04:24:06;103152.97;;;3.40;92.86
73267;BME280;61495;53.400;7.608;2023-02-28T04:26:34;103155.63;;;3.40;93.42
73267;BME280;61495;53.400;7.608;2023-02-28T04:29:00;103153.91;;;3.39;91.57
73267;BME280;61495;53.400;7.608;2023-02-28T04:31:26;103153.91;;;3.39;92.15
73267;BME280;61495;53.400;7.608;2023-02-28T04:33:52;103147.75;;;3.38;93.55
73267;BME280;61495;53.400;7.608;2023-02-28T04:36:17;103151.38;;;3.38;93.56
73267;BME280;61495;53.400;7.608;2023-02-28T04:38:44;103144.50;;;3.35;93.27
73267;BME280;61495;53.400;7.608;2023-02-28T04:41:10;103159.41;;;3.36;93.85
73267;BME280;61495;53.400;7.608;2023-02-28T04:43:36;103152.44;;;3.35;93.33
73267;BME280;61495;53.400;7.608;2023-02-28T04:46:03;103149.69;;;3.36;92.73
73267;BME280;61495;53.400;7.608;2023-02-28T04:48:29;103155.09;;;3.35;93.13
73267;BME280;61495;53.400;7.608;2023-02-28T04:51:00;103155.09;;;3.35;92.58
73267;BME280;61495;53.400;7.608;2023-02-28T04:53:25;103151.78;;;3.31;94.52
73267;BME280;61495;53.400;7.608;2023-02-28T04:55:51;103150.22;;;3.29;93.60
73267;BME280;61495;53.400;7.608;2023-02-28T04:58:16;103152.84;;;3.29;93.17
73267;BME280;61495;53.400;7.608;2023-02-28T05:00:41;103150.41;;;3.26;93.46
73267;BME280;61495;53.400;7.608;2023-02-28T05:03:07;103153.06;;;3.26;93.95
73267;BME280;61495;53.400;7.608;2023-02-28T05:05:32;103147.75;;;3.26;93.77
73267;BME280;61495;53.400;7.608;2023-02-28T05:07:58;103161.94;;;3.25;94.29
73267;BME280;61495;53.400;7.608;2023-02-28T05:10:23;103161.28;;;3.21;94.44
73267;BME280;61495;53.400;7.608;2023-02-28T05:12:49;103166.72;;;3.20;94.16
73267;BME280;61495;53.400;7.608;2023-02-28T05:15:16;103171.88;;;3.21;94.22
73267;BME280;61495;53.400;7.608;2023-02-28T05:17:41;103163.28;;;3.18;94.36
73267;BME280;61495;53.400;7.608;2023-02-28T05:20:08;103158.97;;;3.17;94.38
73267;BME280;61495;53.400;7.608;2023-02-28T05:22:37;103167.66;;;3.19;94.58
73267;BME280;61495;53.400;7.608;2023-02-28T05:25:03;103177.38;;;3.18;94.37
73267;BME280;61495;53.400;7.608;2023-02-28T05:27:30;103177.50;;;3.17;93.64
73267;BME280;61495;53.400;7.608;2023-02-28T05:29:56;103166.78;;;3.18;92.67
73267;BME280;61495;53.400;7.608;2023-02-28T05:32:21;103174.75;;;3.18;92.16
73267;BME280;61495;53.400;7.608;2023-02-28T05:34:47;103170.50;;;3.16;94.26
73267;BME280;61495;53.400;7.608;2023-02-28T05:37:14;103177.50;;;3.17;94.24
73267;BME280;61495;53.400;7.608;2023-02-28T05:39:40;103180.16;;;3.17;91.92
73267;BME280;61495;53.400;7.608;2023-02-28T05:42:05;103179.28;;;3.16;93.25
73267;BME280;61495;53.400;7.608;2023-02-28T05:44:31;103181.09;;;3.16;91.89
73267;BME280;61495;53.400;7.608;2023-02-28T05:46:56;103176.53;;;3.18;92.78
73267;BME280;61495;53.400;7.608;2023-02-28T05:49:22;103158.84;;;3.06;93.45
73267;BME280;61495;53.400;7.608;2023-02-28T05:51:47;103175.91;;;3.14;93.17
73267;BME280;61495;53.400;7.608;2023-02-28T05:54:13;103182.03;;;3.15;92.32
73267;BME280;61495;53.400;7.608;2023-02-28T05:56:38;103178.44;;;3.16;92.40
73267;BME280;61495;53.400;7.608;2023-02-28T05:59:09;103178.66;;;3.13;93.45
73267;BME280;61495;53.400;7.608;2023-02-28T06:01:40;103177.72;;;3.14;91.30
73267;BME280;61495;53.400;7.608;2023-02-28T06:04:08;103182.16;;;3.13;92.56
73267;BME280;61495;53.400;7.608;2023-02-28T06:06:34;103178.75;;;3.11;94.15
73267;BME280;61495;53.400;7.608;2023-02-28T06:09:00;103173.34;;;3.13;92.24
73267;BME280;61495;53.400;7.608;2023-02-28T06:11:26;103177.91;;;3.11;92.30
73267;BME280;61495;53.400;7.608;2023-02-28T06:13:56;103182.22;;;3.12;92.50
73267;BME280;61495;53.400;7.608;2023-02-28T06:16:23;103191.88;;;3.13;92.11
73267;BME280;61495;53.400;7.608;2023-02-28T06:18:49;103187.53;;;3.12;93.06
73267;BME280;61495;53.400;7.608;2023-02-28T06:21:14;103191.16;;;3.11;93.18
73267;BME280;61495;53.400;7.608;2023-02-28T06:23:39;103191.03;;;3.12;92.18
73267;BME280;61495;53.400;7.608;2023-02-28T06:26:05;103178.66;;;3.13;91.71
73267;BME280;61495;53.400;7.608;2023-02-28T06:28:30;103197.19;;;3.13;91.94
73267;BME280;61495;53.400;7.608;2023-02-28T06:30:56;103189.22;;;3.13;91.30
73267;BME280;61495;53.400;7.608;2023-02-28T06:33:21;103197.19;;;3.13;92.44
73267;BME280;61495;53.400;7.608;2023-02-28T06:35:49;103191.03;;;3.12;91.58
73267;BME280;61495;53.400;7.608;2023-02-28T06:38:15;103196.44;;;3.11;94.20
73267;BME280;61495;53.400;7.608;2023-02-28T06:40:41;103198.13;;;3.12;92.88
73267;BME280;61495;53.400;7.608;2023-02-28T06:43:13;103205.97;;;3.13;93.96
73267;BME280;61495;53.400;7.608;2023-02-28T06:45:42;103211.34;;;3.12;92.38
73267;BME280;61495;53.400;7.608;2023-02-28T06:48:08;103217.44;;;3.14;92.27
73267;BME280;61495;53.400;7.608;2023-02-28T06:50:33;103214.78;;;3.14;94.55
73267;BME280;61495;53.400;7.608;2023-02-28T06:52:59;103218.91;;;3.18;92.90
73267;BME280;61495;53.400;7.608;2023-02-28T06:55:24;103230.34;;;3.18;93.54
73267;BME280;61495;53.400;7.608;2023-02-28T06:57:50;103227.63;;;3.20;92.75
73267;BME280;61495;53.400;7.608;2023-02-28T07:00:16;103226.44;;;3.24;91.11
73267;BME280;61495;53.400;7.608;2023-02-28T07:02:41;103230.59;;;3.28;90.76
73267;BME280;61495;53.400;7.608;2023-02-28T07:05:07;103230.41;;;3.31;90.15
73267;BME280;61495;53.400;7.608;2023-02-28T07:07:32;103228.28;;;3.36;91.19
73267;BME280;61495;53.400;7.608;2023-02-28T07:09:59;103224.50;;;3.40;91.67
73267;BME280;61495;53.400;7.608;2023-02-28T07:12:24;103226.94;;;3.43;91.25
73267;BME280;61495;53.400;7.608;2023-02-28T07:14:50;103225.03;;;3.45;91.23
73267;BME280;61495;53.400;7.608;2023-02-28T07:17:15;103228.25;;;3.50;93.17
73267;BME280;61495;53.400;7.608;2023-02-28T07:19:41;103225.41;;;3.53;92.09
73267;BME280;61495;53.400;7.608;2023-02-28T07:22:07;103230.19;;;3.61;92.66
73267;BME280;61495;53.400;7.608;2023-02-28T07:24:33;103234.41;;;3.63;93.20
73267;BME280;61495;53.400;7.608;2023-02-28T07:26:59;103234.94;;;3.68;92.30
73267;BME280;61495;53.400;7.608;2023-02-28T07:29:25;103233.06;;;3.70;92.18
73267;BME280;61495;53.400;7.608;2023-02-28T07:31:50;103232.88;;;3.73;92.20
73267;BME280;61495;53.400;7.608;2023-02-28T07:34:18;103231.81;;;3.76;92.10
73267;BME280;61495;53.400;7.608;2023-02-28T07:36:44;103237.75;;;3.79;92.22
73267;BME280;61495;53.400;7.608;2023-02-28T07:39:09;103235.97;;;3.80;92.66
73267;BME280;61495;53.400;7.608;2023-02-28T07:41:35;103240.41;;;3.79;92.39
73267;BME280;61495;53.400;7.608;2023-02-28T07:44:04;103246.66;;;3.78;92.44
73267;BME280;61495;53.400;7.608;2023-02-28T07:46:30;103253.88;;;3.76;92.68
73267;BME280;61495;53.400;7.608;2023-02-28T07:49:00;103248.56;;;3.76;92.71
73267;BME280;61495;53.400;7.608;2023-02-28T07:51:28;103247.59;;;3.77;93.54
73267;BME280;61495;53.400;7.608;2023-02-28T07:53:54;103253.66;;;3.79;92.93
73267;BME280;61495;53.400;7.608;2023-02-28T07:56:19;103246.66;;;3.78;93.95
73267;BME280;61495;53.400;7.608;2023-02-28T07:58:45;103236.25;;;3.75;93.23
73267;BME280;61495;53.400;7.608;2023-02-28T08:01:11;103242.84;;;3.82;93.58
73267;BME280;61495;53.400;7.608;2023-02-28T08:03:38;103246.22;;;3.84;93.46
73267;BME280;61495;53.400;7.608;2023-02-28T08:06:04;103253.25;;;3.85;93.15
73267;BME280;61495;53.400;7.608;2023-02-28T08:08:30;103251.31;;;3.87;94.01
73267;BME280;61495;53.400;7.608;2023-02-28T08:11:00;103253.03;;;3.88;93.88
73267;BME280;61495;53.400;7.608;2023-02-28T08:13:29;103253.78;;;3.90;94.71
73267;BME280;61495;53.400;7.608;2023-02-28T08:15:56;103251.84;;;3.92;95.21
73267;BME280;61495;53.400;7.608;2023-02-28T08:18:23;103248.16;;;3.95;95.21
73267;BME280;61495;53.400;7.608;2023-02-28T08:20:48;103257.50;;;4.01;96.91
73267;BME280;61495;53.400;7.608;2023-02-28T08:23:13;103257.19;;;4.05;96.20
73267;BME280;61495;53.400;7.608;2023-02-28T08:25:39;103264.00;;;4.09;96.09
73267;BME280;61495;53.400;7.608;2023-02-28T08:28:04;103262.19;;;4.10;96.45
73267;BME280;61495;53.400;7.608;2023-02-28T08:30:30;103257.63;;;4.12;95.65
73267;BME280;61495;53.400;7.608;2023-02-28T08:32:55;103260.91;;;4.15;95.14
73267;BME280;61495;53.400;7.608;2023-02-28T08:35:21;103266.63;;;4.22;95.03
73267;BME280;61495;53.400;7.608;2023-02-28T08:37:48;103258.25;;;4.28;97.10
73267;BME280;61495;53.400;7.608;2023-02-28T08:40:14;103267.41;;;4.36;95.76
73267;BME280;61495;53.400;7.608;2023-02-28T08:42:44;103266.13;;;4.42;94.57
73267;BME280;61495;53.400;7.608;2023-02-28T08:45:11;103270.22;;;4.46;95.07
73267;BME280;61495;53.400;7.608;2023-02-28T08:47:37;103271.94;;;4.47;94.85
73267;BME280;61495;53.400;7.608;2023-02-28T08:50:03;103273.44;;;4.51;94.71
73267;BME280;61495;53.400;7.608;2023-02-28T08:52:28;103261.63;;;4.55;94.36
73267;BME280;61495;53.400;7.608;2023-02-28T08:54:54;103267.28;;;4.63;95.10
73267;BME280;61495;53.400;7.608;2023-02-28T08:57:19;103261.50;;;4.69;94.47
73267;BME280;61495;53.400;7.608;2023-02-28T08:59:44;103260.84;;;4.78;95.72
73267;BME280;61495;53.400;7.608;2023-02-28T09:02:13;103269.97;;;4.87;96.38
73267;BME280;61495;53.400;7.608;2023-02-28T09:04:38;103265.91;;;4.94;94.99
73267;BME280;61495;53.400;7.608;2023-02-28T09:07:03;103265.03;;;5.06;94.21
73267;BME280;61495;53.400;7.608;2023-02-28T09:09:29;103269.47;;;5.05;94.48
73267;BME280;61495;53.400;7.608;2023-02-28T09:11:55;103260.91;;;5.26;94.84
73267;BME280;61495;53.400;7.608;2023-02-28T09:14:21;103270.59;;;5.50;94.36
73267;BME280;61495;53.400;7.608;2023-02-28T09:16:46;103268.75;;;5.75;92.78
73267;BME280;61495;53.400;7.608;2023-02-28T09:19:13;103265.50;;;5.82;91.54
73267;BME280;61495;53.400;7.608;2023-02-28T09:21:38;103271.31;;;6.11;91.39
73267;BME280;61495;53.400;7.608;2023-02-28T09:24:04;103266.88;;;6.34;91.60
73267;BME280;61495;53.400;7.608;2023-02-28T09:26:29;103270.75;;;6.52;91.00
73267;BME280;61495;53.400;7.608;2023-02-28T09:28:55;103273.19;;;6.66;89.42
73267;BME280;61495;53.400;7.608;2023-02-28T09:31:23;103266.88;;;6.78;89.73
73267;BME280;61495;53.400;7.608;2023-02-28T09:33:50;103252.22;;;6.84;88.40
73267;BME280;61495;53.400;7.608;2023-02-28T09:36:17;103267.13;;;6.97;87.95
73267;BME280;61495;53.400;7.608;2023-02-28T09:38:42;103263.56;;;7.08;87.61
73267;BME280;61495;53.400;7.608;2023-02-28T09:41:38;103268.00;;;7.30;86.63
73267;BME280;61495;53.400;7.608;2023-02-28T09:44:24;103270.13;;;7.47;86.00
73267;BME280;61495;53.400;7.608;2023-02-28T09:46:57;103274.25;;;7.51;86.37
73267;BME280;61495;53.400;7.608;2023-02-28T09:49:39;103276.41;;;7.57;85.14
73267;BME280;61495;53.400;7.608;2023-02-28T09:52:18;103281.03;;;7.44;82.97
73267;BME280;61495;53.400;7.608;2023-02-28T09:54:44;103277.13;;;7.59;83.74
73267;BME280;61495;53.400;7.608;2023-02-28T09:57:32;103277.84;;;7.81;84.55
73267;BME280;61495;53.400;7.608;2023-02-28T10:00:19;103280.59;;;7.91;83.98
73267;BME280;61495;53.400;7.608;2023-02-28T10:05:50;103280.34;;;7.94;83.08
73267;BME280;61495;53.400;7.608;2023-02-28T10:08:25;103287.00;;;8.20;85.44
73267;BME280;61495;53.400;7.608;2023-02-28T10:10:58;103282.91;;;8.37;85.31
73267;BME280;61495;53.400;7.608;2023-02-28T10:14:01;103288.69;;;8.42;83.60
73267;BME280;61495;53.400;7.608;2023-02-28T10:19:09;103293.47;;;8.69;83.40
73267;BME280;61495;53.400;7.608;2023-02-28T10:21:41;103292.97;;;8.84;83.38
73267;BME280;61495;53.400;7.608;2023-02-28T10:27:23;103299.72;;;9.28;82.95
73267;BME280;61495;53.400;7.608;2023-02-28T10:29:52;103292.53;;;9.38;82.91
73267;BME280;61495;53.400;7.608;2023-02-28T10:32:20;103301.00;;;9.34;80.91
73267;BME280;61495;53.400;7.608;2023-02-28T10:34:59;103291.16;;;9.54;80.51
73267;BME280;61495;53.400;7.608;2023-02-28T10:37:27;103286.22;;;9.78;80.74
73267;BME280;61495;53.400;7.608;2023-02-28T10:39:52;103281.28;;;10.02;81.14
73267;BME280;61495;53.400;7.608;2023-02-28T10:42:29;103275.66;;;10.24;79.80
73267;BME280;61495;53.400;7.608;2023-02-28T10:45:15;103289.28;;;10.40;78.87
73267;BME280;61495;53.400;7.608;2023-02-28T10:47:59;103286.28;;;10.53;78.95
73267;BME280;61495;53.400;7.608;2023-02-28T10:50:35;103292.69;;;10.70;77.44
73267;BME280;61495;53.400;7.608;2023-02-28T10:58:23;103297.50;;;11.03;74.67
73267;BME280;61495;53.400;7.608;2023-02-28T11:00:49;103296.25;;;11.25;74.86
73267;BME280;61495;53.400;7.608;2023-02-28T11:03:43;103295.84;;;11.20;73.61
73267;BME280;61495;53.400;7.608;2023-02-28T11:06:23;103285.22;;;11.45;73.54
73267;BME280;61495;53.400;7.608;2023-02-28T11:08:53;103284.47;;;11.70;72.10
73267;BME280;61495;53.400;7.608;2023-02-28T11:11:20;103281.09;;;11.68;70.74
73267;BME280;61495;53.400;7.608;2023-02-28T11:13:51;103282.63;;;11.89;71.39
73267;BME280;61495;53.400;7.608;2023-02-28T11:16:18;103276.69;;;12.03;71.54
73267;BME280;61495;53.400;7.608;2023-02-28T11:18:49;103272.13;;;12.21;71.16
73267;BME280;61495;53.400;7.608;2023-02-28T11:21:22;103276.25;;;12.33;70.84
73267;BME280;61495;53.400;7.608;2023-02-28T11:23:52;103273.94;;;12.38;70.53
73267;BME280;61495;53.400;7.608;2023-02-28T11:26:38;103272.97;;;12.47;69.17
73267;BME280;61495;53.400;7.608;2023-02-28T11:29:25;103269.28;;;12.48;69.21
73267;BME280;61495;53.400;7.608;2023-02-28T11:32:18;103270.22;;;12.39;67.07
73267;BME280;61495;53.400;7.608;2023-02-28T11:34:45;103276.25;;;12.33;66.28
73267;BME280;61495;53.400;7.608;2023-02-28T11:37:18;103274.75;;;12.39;65.60
73267;BME280;61495;53.400;7.608;2023-02-28T11:39:45;103279.09;;;12.57;66.61
73267;BME280;61495;53.400;7.608;2023-02-28T11:56:06;103265.88;;;12.72;66.74
73267;BME280;61495;53.400;7.608;2023-02-28T12:01:31;103254.59;;;12.68;65.78
73267;BME280;61495;53.400;7.608;2023-02-28T12:09:39;103246.84;;;12.65;63.95
73267;BME280;61495;53.400;7.608;2023-02-28T12:24:08;103225.81;;;12.27;61.10
73267;BME280;61495;53.400;7.608;2023-02-28T12:26:41;103221.03;;;12.13;62.77
73267;BME280;61495;53.400;7.608;2023-02-28T12:29:21;103211.19;;;11.96;61.96
73267;BME280;61495;53.400;7.608;2023-02-28T12:34:24;103207.38;;;12.06;63.75
73267;BME280;61495;53.400;7.608;2023-02-28T12:36:53;103208.25;;;12.15;63.29
73267;BME280;61495;53.400;7.608;2023-02-28T12:39:26;103202.16;;;12.05;64.26
73267;BME280;61495;53.400;7.608;2023-02-28T12:42:05;103201.22;;;12.14;63.24
73267;BME280;61495;53.400;7.608;2023-02-28T12:44:39;103197.47;;;12.07;64.28
73267;BME280;61495;53.400;7.608;2023-02-28T12:47:14;103193.50;;;12.19;67.01
73267;BME280;61495;53.400;7.608;2023-02-28T12:49:48;103191.50;;;12.21;65.53
73267;BME280;61495;53.400;7.608;2023-02-28T12:52:19;103194.56;;;12.00;62.25
73267;BME280;61495;53.400;7.608;2023-02-28T12:54:53;103191.31;;;11.89;63.84
73267;BME280;61495;53.400;7.608;2023-02-28T12:57:39;103189.94;;;12.10;64.89
73267;BME280;61495;53.400;7.608;2023-02-28T13:00:20;103197.25;;;12.26;66.21
73267;BME280;61495;53.400;7.608;2023-02-28T13:10:48;103192.06;;;11.99;62.90
73267;BME280;61495;53.400;7.608;2023-02-28T13:13:30;103187.00;;;11.96;62.99
73267;BME280;61495;53.400;7.608;2023-02-28T13:16:08;103182.16;;;11.99;63.08
73267;BME280;61495;53.400;7.608;2023-02-28T13:21:04;103179.97;;;11.77;60.41
73267;BME280;61495;53.400;7.608;2023-02-28T13:29:20;103167.53;;;11.58;62.93
73267;BME280;61495;53.400;7.608;2023-02-28T13:34:37;103166.50;;;11.51;62.22
73267;BME280;61495;53.400;7.608;2023-02-28T13:39:58;103165.88;;;11.57;65.17
73267;BME280;61495;53.400;7.608;2023-02-28T13:47:53;103161.97;;;11.52;63.93
73267;BME280;61495;53.400;7.608;2023-02-28T13:55:30;103155.50;;;11.62;64.76
73267;BME280;61495;53.400;7.608;2023-02-28T14:06:39;103161.28;;;11.50;61.84
73267;BME280;61495;53.400;7.608;2023-02-28T14:09:27;103150.13;;;11.62;63.96
73267;BME280;61495;53.400;7.608;2023-02-28T14:11:54;103153.34;;;11.66;64.46
73267;BME280;61495;53.400;7.608;2023-02-28T14:17:15;103149.84;;;11.48;61.97
73267;BME280;61495;53.400;7.608;2023-02-28T14:19:45;103146.88;;;11.33;58.89
73267;BME280;61495;53.400;7.608;2023-02-28T14:28:12;103147.25;;;11.38;59.56
73267;BME280;61495;53.400;7.608;2023-02-28T14:31:00;103153.47;;;11.39;59.38
73267;BME280;61495;53.400;7.608;2023-02-28T14:33:42;103149.94;;;11.38;58.42
73267;BME280;61495;53.400;7.608;2023-02-28T14:36:14;103154.69;;;11.44;62.12
73267;BME280;61495;53.400;7.608;2023-02-28T14:38:52;103142.25;;;11.43;60.92
73267;BME280;61495;53.400;7.608;2023-02-28T14:41:28;103150.69;;;11.48;62.28
73267;BME280;61495;53.400;7.608;2023-02-28T14:43:57;103148.69;;;11.50;60.33
73267;BME280;61495;53.400;7.608;2023-02-28T14:46:26;103138.94;;;11.49;59.31
73267;BME280;61495;53.400;7.608;2023-02-28T14:48:52;103146.00;;;11.50;58.73
73267;BME280;61495;53.400;7.608;2023-02-28T14:51:20;103138.44;;;11.46;58.44
73267;BME280;61495;53.400;7.608;2023-02-28T14:53:50;103141.13;;;11.46;60.72
73267;BME280;61495;53.400;7.608;2023-02-28T14:56:29;103134.81;;;11.37;56.90
73267;BME280;61495;53.400;7.608;2023-02-28T14:58:57;103135.22;;;11.42;60.59
73267;BME280;61495;53.400;7.608;2023-02-28T15:01:24;103137.19;;;11.40;59.45
73267;BME280;61495;53.400;7.608;2023-02-28T15:04:18;103137.91;;;11.42;59.67
73267;BME280;61495;53.400;7.608;2023-02-28T15:06:46;103146.56;;;11.36;58.28
73267;BME280;61495;53.400;7.608;2023-02-28T15:09:16;103145.72;;;11.36;59.96
73267;BME280;61495;53.400;7.608;2023-02-28T15:11:46;103142.38;;;11.34;57.90
73267;BME280;61495;53.400;7.608;2023-02-28T15:14:22;103145.19;;;11.32;59.55
73267;BME280;61495;53.400;7.608;2023-02-28T15:17:01;103140.75;;;11.23;61.98
73267;BME280;61495;53.400;7.608;2023-02-28T15:19:33;103153.78;;;11.18;56.46
73267;BME280;61495;53.400;7.608;2023-02-28T15:22:03;103150.81;;;11.03;56.10
73267;BME280;61495;53.400;7.608;2023-02-28T15:24:42;103150.88;;;10.94;59.29
73267;BME280;61495;53.400;7.608;2023-02-28T15:27:32;103151.41;;;10.80;58.68
73267;BME280;61495;53.400;7.608;2023-02-28T15:30:05;103148.69;;;10.62;61.29
73267;BME280;61495;53.400;7.608;2023-02-28T15:32:36;103156.97;;;10.69;63.88